createdAt,value
2022-11-29T00:00:20.317Z,206.80
2022-11-29T00:01:20.312Z,170.50
2022-11-29T00:02:20.438Z,204.80
2022-11-29T00:03:20.416Z,263.40
2022-11-29T00:04:20.274Z,213.50
2022-11-29T00:05:20.269Z,234.30
2022-11-29T00:06:20.248Z,284.30
2022-11-29T00:07:20.295Z,225.60
2022-11-29T00:08:20.229Z,210.10
2022-11-29T00:09:20.221Z,122.60
2022-11-29T00:10:20.205Z,118.10
2022-11-29T00:11:20.199Z,131.00
2022-11-29T00:12:20.194Z,122.30
2022-11-29T00:13:20.183Z,114.30
2022-11-29T00:14:20.163Z,115.50
2022-11-29T00:15:20.157Z,89.30
2022-11-29T00:16:20.262Z,112.20
2022-11-29T00:17:20.146Z,110.30
2022-11-29T00:18:20.117Z,108.20
2022-11-29T00:19:20.113Z,112.40
2022-11-29T00:20:20.099Z,129.20
2022-11-29T00:21:20.089Z,112.00
2022-11-29T00:22:20.085Z,95.50
2022-11-29T00:23:20.066Z,105.00
2022-11-29T00:24:20.060Z,102.00
2022-11-29T00:25:20.048Z,106.50
2022-11-29T00:26:20.029Z,105.80
2022-11-29T00:27:20.032Z,138.60
2022-11-29T00:28:20.006Z,116.40
2022-11-29T00:29:20.000Z,106.30
2022-11-29T00:30:19.985Z,100.00
2022-11-29T00:31:19.983Z,89.70
2022-11-29T00:32:19.972Z,95.20
2022-11-29T00:33:19.955Z,106.90
2022-11-29T00:34:19.940Z,90.10
2022-11-29T00:35:19.932Z,111.60
2022-11-29T00:36:19.921Z,103.60
2022-11-29T00:37:19.921Z,83.90
2022-11-29T00:38:19.898Z,99.00
2022-11-29T00:39:19.889Z,85.80
2022-11-29T00:40:19.874Z,89.50
2022-11-29T00:41:19.866Z,92.10
2022-11-29T00:42:19.862Z,80.40
2022-11-29T00:43:19.840Z,112.60
2022-11-29T00:44:20.661Z,119.60
2022-11-29T00:45:19.819Z,89.10
2022-11-29T00:46:19.885Z,110.50
2022-11-29T00:47:19.806Z,106.90
2022-11-29T00:48:19.808Z,98.10
2022-11-29T00:49:19.775Z,70.00
2022-11-29T00:50:19.769Z,142.30
2022-11-29T00:51:19.773Z,102.00
2022-11-29T00:52:19.769Z,89.70
2022-11-29T00:53:19.735Z,104.30
2022-11-29T00:54:19.724Z,78.60
2022-11-29T00:55:19.707Z,86.70
2022-11-29T00:56:19.701Z,61.40
2022-11-29T00:57:19.696Z,81.80
2022-11-29T00:58:19.680Z,105.70
2022-11-29T00:59:19.665Z,168.30
2022-11-29T01:00:19.658Z,71.20
2022-11-29T01:01:19.683Z,95.00
2022-11-29T01:02:19.661Z,125.50
2022-11-29T01:03:19.619Z,76.60
2022-11-29T01:04:19.615Z,79.20
2022-11-29T01:05:19.599Z,69.40
2022-11-29T01:06:19.591Z,82.00
2022-11-29T01:07:19.624Z,79.80
2022-11-29T01:08:19.574Z,88.00
2022-11-29T01:09:19.553Z,80.80
2022-11-29T01:10:19.546Z,77.60
2022-11-29T01:11:19.530Z,62.70
2022-11-29T01:12:19.537Z,79.70
2022-11-29T01:13:19.510Z,76.70
2022-11-29T01:14:19.506Z,68.70
2022-11-29T01:15:19.489Z,88.10
2022-11-29T01:16:19.520Z,72.80
2022-11-29T01:17:19.474Z,76.00
2022-11-29T01:18:19.471Z,68.90
2022-11-29T01:19:19.442Z,65.30
2022-11-29T01:20:19.437Z,65.10
2022-11-29T01:21:19.423Z,76.80
2022-11-29T01:22:19.425Z,79.90
2022-11-29T01:23:19.402Z,75.90
2022-11-29T01:24:19.400Z,81.70
2022-11-29T01:25:19.377Z,74.40
2022-11-29T01:26:19.370Z,76.90
2022-11-29T01:27:19.364Z,74.40
2022-11-29T01:28:19.424Z,95.10
2022-11-29T01:29:19.332Z,108.20
2022-11-29T01:30:19.328Z,113.40
2022-11-29T01:31:19.373Z,131.20
2022-11-29T01:32:19.313Z,135.60
2022-11-29T01:33:19.288Z,135.40
2022-11-29T01:34:19.282Z,121.20
2022-11-29T01:35:19.270Z,127.20
2022-11-29T01:36:19.260Z,130.20
2022-11-29T01:37:19.255Z,139.40
2022-11-29T01:38:19.237Z,69.10
2022-11-29T01:39:19.221Z,108.20
2022-11-29T01:40:19.215Z,126.40
2022-11-29T01:41:19.198Z,130.70
2022-11-29T01:42:19.194Z,141.50
2022-11-29T01:43:19.185Z,166.20
2022-11-29T01:44:19.173Z,160.50
2022-11-29T01:45:19.156Z,143.10
2022-11-29T01:46:19.171Z,136.20
2022-11-29T01:47:19.135Z,202.90
2022-11-29T01:48:19.138Z,98.40
2022-11-29T01:49:19.111Z,135.80
2022-11-29T01:50:19.105Z,129.40
2022-11-29T01:51:19.089Z,94.70
2022-11-29T01:52:19.089Z,132.60
2022-11-29T01:53:19.080Z,115.90
2022-11-29T01:54:19.063Z,163.50
2022-11-29T01:55:19.044Z,114.40
2022-11-29T01:56:19.074Z,161.50
2022-11-29T01:57:19.023Z,198.80
2022-11-29T01:58:19.026Z,128.60
2022-11-29T01:59:19.002Z,147.60
2022-11-29T02:00:18.995Z,99.70
2022-11-29T02:01:19.015Z,113.10
2022-11-29T02:02:18.989Z,101.90
2022-11-29T02:03:18.968Z,167.10
2022-11-29T02:04:18.950Z,122.90
2022-11-29T02:05:18.933Z,114.80
2022-11-29T02:06:18.927Z,154.00
2022-11-29T02:07:18.985Z,152.80
2022-11-29T02:08:18.915Z,118.00
2022-11-29T02:09:18.891Z,122.00
2022-11-29T02:10:18.883Z,140.80
2022-11-29T02:11:18.869Z,146.10
2022-11-29T02:12:18.864Z,149.70
2022-11-29T02:13:18.856Z,74.70
2022-11-29T02:14:18.853Z,141.00
2022-11-29T02:15:18.823Z,133.30
2022-11-29T02:16:18.868Z,137.40
2022-11-29T02:17:18.802Z,87.00
2022-11-29T02:18:18.803Z,153.40
2022-11-29T02:19:18.781Z,156.20
2022-11-29T02:20:18.777Z,83.30
2022-11-29T02:21:18.758Z,91.30
2022-11-29T02:22:18.752Z,96.20
2022-11-29T02:23:18.745Z,97.70
2022-11-29T02:24:18.729Z,143.70
2022-11-29T02:25:18.714Z,126.30
2022-11-29T02:26:18.709Z,115.20
2022-11-29T02:27:18.692Z,80.50
2022-11-29T02:28:18.693Z,96.70
2022-11-29T02:29:18.670Z,106.70
2022-11-29T02:30:18.664Z,111.60
2022-11-29T02:31:18.674Z,120.80
2022-11-29T02:32:18.641Z,95.90
2022-11-29T02:33:18.643Z,196.90
2022-11-29T02:34:18.618Z,98.20
2022-11-29T02:35:18.604Z,94.80
2022-11-29T02:36:18.596Z,105.90
2022-11-29T02:37:18.585Z,164.80
2022-11-29T02:38:18.585Z,118.50
2022-11-29T02:39:18.559Z,109.80
2022-11-29T02:40:18.552Z,195.10
2022-11-29T02:41:18.537Z,139.40
2022-11-29T02:42:18.532Z,95.10
2022-11-29T02:43:18.527Z,100.70
2022-11-29T02:44:18.509Z,102.50
2022-11-29T02:45:18.492Z,103.40
2022-11-29T02:46:18.516Z,78.90
2022-11-29T02:47:18.470Z,93.50
2022-11-29T02:48:18.472Z,87.90
2022-11-29T02:49:18.452Z,102.30
2022-11-29T02:50:18.461Z,94.10
2022-11-29T02:51:18.426Z,71.80
2022-11-29T02:52:18.421Z,126.20
2022-11-29T02:53:18.417Z,131.20
2022-11-29T02:54:18.400Z,102.00
2022-11-29T02:55:18.383Z,235.40
2022-11-29T02:56:18.375Z,104.50
2022-11-29T02:57:18.359Z,81.70
2022-11-29T02:58:18.366Z,118.60
2022-11-29T02:59:18.336Z,101.80
2022-11-29T03:00:18.335Z,158.00
2022-11-29T03:01:18.353Z,196.40
2022-11-29T03:02:18.336Z,96.40
2022-11-29T03:03:18.305Z,78.40
2022-11-29T03:04:18.287Z,97.20
2022-11-29T03:05:18.271Z,126.70
2022-11-29T03:06:18.263Z,130.20
2022-11-29T03:07:18.286Z,172.00
2022-11-29T03:08:18.253Z,165.70
2022-11-29T03:09:18.233Z,166.10
2022-11-29T03:10:18.219Z,190.50
2022-11-29T03:11:18.205Z,238.60
2022-11-29T03:12:18.197Z,208.70
2022-11-29T03:13:18.192Z,199.80
2022-11-29T03:14:18.177Z,257.80
2022-11-29T03:15:18.170Z,293.80
2022-11-29T03:16:18.153Z,166.10
2022-11-29T03:17:18.157Z,118.20
2022-11-29T03:18:18.139Z,102.70
2022-11-29T03:19:18.118Z,107.00
2022-11-29T03:20:18.110Z,125.00
2022-11-29T03:21:18.103Z,123.10
2022-11-29T03:22:18.082Z,105.00
2022-11-29T03:23:18.094Z,106.20
2022-11-29T03:24:18.089Z,191.40
2022-11-29T03:25:18.055Z,84.10
2022-11-29T03:26:18.039Z,112.10
2022-11-29T03:27:18.032Z,101.60
2022-11-29T03:28:18.035Z,102.50
2022-11-29T03:29:18.011Z,111.10
2022-11-29T03:30:18.147Z,96.30
2022-11-29T03:31:18.144Z,104.10
2022-11-29T03:32:17.974Z,104.30
2022-11-29T03:33:17.965Z,98.50
2022-11-29T03:34:17.958Z,96.40
2022-11-29T03:35:17.946Z,97.70
2022-11-29T03:36:17.929Z,94.00
2022-11-29T03:37:17.930Z,95.20
2022-11-29T03:38:17.907Z,115.50
2022-11-29T03:39:17.910Z,157.90
2022-11-29T03:40:17.884Z,158.20
2022-11-29T03:41:17.878Z,127.20
2022-11-29T03:42:17.863Z,164.20
2022-11-29T03:43:17.849Z,271.50
2022-11-29T03:44:17.856Z,225.70
2022-11-29T03:45:17.827Z,159.00
2022-11-29T03:46:17.861Z,88.70
2022-11-29T03:47:17.805Z,128.30
2022-11-29T03:48:17.800Z,87.50
2022-11-29T03:49:17.792Z,89.20
2022-11-29T03:50:17.779Z,101.80
2022-11-29T03:51:17.761Z,95.30
2022-11-29T03:52:17.757Z,97.10
2022-11-29T03:53:17.740Z,79.30
2022-11-29T03:54:17.743Z,91.00
2022-11-29T03:55:17.719Z,78.90
2022-11-29T03:56:17.719Z,76.10
2022-11-29T03:57:17.696Z,88.70
2022-11-29T03:58:17.695Z,87.20
2022-11-29T03:59:17.699Z,77.30
2022-11-29T04:00:17.670Z,58.10
2022-11-29T04:01:17.685Z,68.80
2022-11-29T04:02:17.677Z,85.90
2022-11-29T04:03:17.630Z,123.70
2022-11-29T04:04:17.633Z,101.50
2022-11-29T04:05:17.608Z,87.70
2022-11-29T04:06:17.601Z,96.20
2022-11-29T04:07:17.635Z,85.60
2022-11-29T04:08:17.581Z,91.20
2022-11-29T04:09:17.576Z,115.30
2022-11-29T04:10:17.557Z,135.00
2022-11-29T04:11:17.543Z,154.00
2022-11-29T04:12:17.537Z,130.10
2022-11-29T04:13:17.521Z,82.50
2022-11-29T04:14:17.533Z,113.60
2022-11-29T04:15:17.498Z,101.90
2022-11-29T04:16:17.588Z,159.00
2022-11-29T04:17:17.476Z,159.50
2022-11-29T04:18:17.470Z,112.50
2022-11-29T04:19:17.474Z,114.10
2022-11-29T04:20:17.455Z,98.80
2022-11-29T04:21:17.436Z,81.30
2022-11-29T04:22:17.457Z,105.60
2022-11-29T04:23:17.416Z,103.40
2022-11-29T04:24:17.437Z,120.90
2022-11-29T04:25:17.389Z,90.20
2022-11-29T04:26:17.383Z,74.30
2022-11-29T04:27:17.370Z,111.50
2022-11-29T04:28:17.361Z,113.20
2022-11-29T04:29:17.363Z,146.20
2022-11-29T04:30:17.341Z,119.90
2022-11-29T04:31:17.498Z,121.20
2022-11-29T04:32:17.317Z,86.50
2022-11-29T04:33:17.300Z,102.50
2022-11-29T04:34:17.293Z,121.80
2022-11-29T04:35:17.287Z,129.20
2022-11-29T04:36:17.271Z,163.90
2022-11-29T04:37:17.257Z,130.90
2022-11-29T04:38:17.249Z,93.30
2022-11-29T04:39:17.263Z,86.20
2022-11-29T04:40:17.249Z,128.60
2022-11-29T04:41:17.213Z,107.10
2022-11-29T04:42:17.205Z,88.00
2022-11-29T04:43:17.193Z,91.70
2022-11-29T04:44:17.186Z,129.10
2022-11-29T04:45:17.185Z,143.80
2022-11-29T04:46:17.221Z,71.90
2022-11-29T04:47:17.148Z,140.10
2022-11-29T04:48:17.143Z,92.30
2022-11-29T04:49:17.124Z,124.70
2022-11-29T04:50:17.132Z,105.50
2022-11-29T04:51:17.104Z,145.00
2022-11-29T04:52:17.096Z,137.40
2022-11-29T04:53:17.082Z,132.20
2022-11-29T04:54:17.076Z,112.00
2022-11-29T04:55:22.842Z,115.10
2022-11-29T04:56:17.056Z,101.40
2022-11-29T04:57:17.039Z,112.10
2022-11-29T04:58:17.030Z,105.30
2022-11-29T04:59:17.013Z,90.40
2022-11-29T05:00:17.018Z,124.10
2022-11-29T05:01:17.033Z,115.50
2022-11-29T05:02:17.014Z,145.40
2022-11-29T05:03:16.970Z,122.70
2022-11-29T05:04:16.967Z,114.60
2022-11-29T05:05:16.963Z,112.90
2022-11-29T05:06:16.941Z,114.30
2022-11-29T05:07:16.971Z,120.20
2022-11-29T05:08:16.922Z,87.70
2022-11-29T05:09:16.907Z,97.30
2022-11-29T05:10:16.912Z,93.60
2022-11-29T05:11:19.728Z,94.80
2022-11-29T05:12:16.882Z,96.00
2022-11-29T05:13:16.863Z,104.90
2022-11-29T05:14:16.853Z,124.50
2022-11-29T05:15:16.870Z,84.00
2022-11-29T05:16:16.866Z,80.90
2022-11-29T05:17:16.816Z,106.00
2022-11-29T05:18:16.822Z,72.60
2022-11-29T05:19:16.793Z,120.70
2022-11-29T05:20:16.798Z,69.10
2022-11-29T05:21:16.774Z,76.40
2022-11-29T05:22:16.771Z,89.40
2022-11-29T05:23:16.752Z,72.70
2022-11-29T05:24:16.743Z,82.20
2022-11-29T05:25:16.739Z,76.60
2022-11-29T05:26:16.720Z,72.60
2022-11-29T05:27:16.706Z,143.20
2022-11-29T05:28:16.709Z,116.00
2022-11-29T05:29:16.695Z,97.50
2022-11-29T05:30:16.689Z,97.00
2022-11-29T05:31:16.742Z,111.50
2022-11-29T05:32:16.658Z,80.90
2022-11-29T05:33:16.642Z,76.00
2022-11-29T05:34:16.632Z,93.50
2022-11-29T05:35:16.677Z,69.40
2022-11-29T05:36:16.614Z,114.10
2022-11-29T05:37:16.598Z,90.80
2022-11-29T05:38:16.592Z,121.90
2022-11-29T05:39:16.576Z,68.00
2022-11-29T05:40:16.608Z,63.10
2022-11-29T05:41:16.552Z,62.50
2022-11-29T05:42:16.546Z,64.50
2022-11-29T05:43:16.530Z,69.80
2022-11-29T05:44:16.522Z,69.90
2022-11-29T05:45:16.510Z,115.80
2022-11-29T05:46:16.568Z,71.50
2022-11-29T05:47:16.488Z,92.80
2022-11-29T05:48:16.485Z,90.70
2022-11-29T05:49:16.463Z,78.80
2022-11-29T05:50:16.460Z,63.70
2022-11-29T05:51:16.455Z,71.00
2022-11-29T05:52:16.443Z,66.20
2022-11-29T05:53:16.422Z,58.60
2022-11-29T05:54:16.419Z,96.50
2022-11-29T05:55:16.406Z,82.20
2022-11-29T05:56:16.404Z,66.30
2022-11-29T05:57:16.380Z,66.60
2022-11-29T05:58:16.392Z,70.90
2022-11-29T05:59:16.360Z,72.90
2022-11-29T06:00:16.348Z,67.00
2022-11-29T06:01:16.350Z,59.00
2022-11-29T06:02:16.380Z,63.10
2022-11-29T06:03:16.391Z,81.10
2022-11-29T06:04:16.307Z,65.60
2022-11-29T06:05:16.295Z,61.10
2022-11-29T06:06:16.292Z,62.60
2022-11-29T06:07:16.368Z,67.50
2022-11-29T06:08:16.261Z,75.30
2022-11-29T06:09:16.308Z,84.70
2022-11-29T06:10:16.240Z,78.20
2022-11-29T06:11:16.233Z,112.20
2022-11-29T06:12:20.781Z,75.30
2022-11-29T06:13:16.205Z,88.80
2022-11-29T06:14:16.196Z,81.10
2022-11-29T06:15:16.182Z,69.40
2022-11-29T06:16:16.233Z,93.20
2022-11-29T06:17:16.160Z,73.20
2022-11-29T06:18:16.154Z,74.70
2022-11-29T06:19:16.138Z,86.00
2022-11-29T06:20:16.131Z,65.60
2022-11-29T06:21:16.125Z,64.70
2022-11-29T06:22:16.108Z,65.20
2022-11-29T06:23:16.093Z,71.40
2022-11-29T06:24:16.088Z,85.70
2022-11-29T06:25:16.073Z,56.30
2022-11-29T06:26:16.073Z,56.00
2022-11-29T06:27:16.048Z,52.50
2022-11-29T06:28:16.042Z,55.40
2022-11-29T06:29:16.050Z,80.60
2022-11-29T06:30:16.024Z,63.70
2022-11-29T06:31:16.100Z,77.30
2022-11-29T06:32:15.997Z,81.10
2022-11-29T06:33:15.984Z,61.50
2022-11-29T06:34:15.976Z,71.40
2022-11-29T06:35:15.962Z,65.90
2022-11-29T06:36:15.969Z,70.20
2022-11-29T06:37:15.941Z,58.70
2022-11-29T06:38:15.939Z,62.20
2022-11-29T06:39:15.920Z,59.30
2022-11-29T06:40:15.934Z,57.60
2022-11-29T06:41:15.914Z,55.40
2022-11-29T06:42:15.891Z,57.50
2022-11-29T06:43:15.881Z,59.90
2022-11-29T06:44:15.866Z,63.40
2022-11-29T06:45:15.858Z,70.10
2022-11-29T06:46:15.921Z,55.70
2022-11-29T06:47:15.836Z,52.40
2022-11-29T06:48:15.820Z,51.60
2022-11-29T06:49:15.817Z,55.80
2022-11-29T06:50:15.800Z,63.30
2022-11-29T06:51:15.812Z,73.40
2022-11-29T06:52:15.778Z,97.30
2022-11-29T06:53:15.771Z,75.00
2022-11-29T06:54:15.755Z,66.80
2022-11-29T06:55:15.753Z,59.00
2022-11-29T06:56:15.744Z,64.50
2022-11-29T06:57:15.726Z,57.80
2022-11-29T06:58:15.716Z,53.50
2022-11-29T06:59:15.708Z,70.30
2022-11-29T07:00:15.690Z,51.90
2022-11-29T07:01:15.748Z,60.00
2022-11-29T07:02:15.707Z,57.70
2022-11-29T07:03:15.661Z,58.60
2022-11-29T07:04:15.646Z,57.90
2022-11-29T07:05:15.640Z,59.00
2022-11-29T07:06:15.623Z,68.50
2022-11-29T07:07:15.680Z,58.40
2022-11-29T07:08:15.603Z,51.80
2022-11-29T07:09:15.599Z,52.80
2022-11-29T07:10:15.580Z,50.90
2022-11-29T07:11:15.574Z,51.30
2022-11-29T07:12:15.568Z,74.90
2022-11-29T07:13:15.561Z,57.30
2022-11-29T07:14:15.537Z,63.90
2022-11-29T07:15:15.529Z,50.70
2022-11-29T07:16:15.543Z,58.90
2022-11-29T07:17:15.516Z,55.90
2022-11-29T07:18:15.496Z,62.70
2022-11-29T07:19:15.485Z,56.70
2022-11-29T07:20:15.471Z,51.80
2022-11-29T07:21:15.465Z,55.50
2022-11-29T07:22:15.457Z,50.80
2022-11-29T07:23:15.445Z,63.80
2022-11-29T07:24:15.426Z,65.30
2022-11-29T07:25:15.424Z,70.30
2022-11-29T07:26:15.405Z,53.60
2022-11-29T07:27:15.410Z,49.20
2022-11-29T07:28:15.384Z,53.30
2022-11-29T07:29:15.376Z,59.60
2022-11-29T07:30:15.380Z,52.20
2022-11-29T07:31:15.362Z,54.90
2022-11-29T07:32:15.348Z,55.40
2022-11-29T07:33:15.339Z,51.40
2022-11-29T07:34:15.320Z,52.30
2022-11-29T07:35:15.305Z,59.50
2022-11-29T07:36:15.298Z,57.70
2022-11-29T07:37:15.296Z,55.30
2022-11-29T07:38:15.275Z,57.50
2022-11-29T07:39:15.272Z,46.20
2022-11-29T07:40:15.255Z,65.70
2022-11-29T07:41:15.240Z,53.10
2022-11-29T07:42:15.244Z,57.00
2022-11-29T07:43:15.221Z,47.20
2022-11-29T07:44:15.212Z,51.30
2022-11-29T07:45:15.201Z,60.10
2022-11-29T07:46:15.233Z,58.60
2022-11-29T07:47:15.182Z,60.50
2022-11-29T07:48:15.169Z,57.80
2022-11-29T07:49:15.153Z,56.10
2022-11-29T07:50:15.146Z,53.70
2022-11-29T07:51:15.132Z,49.00
2022-11-29T07:52:15.132Z,52.10
2022-11-29T07:53:15.109Z,44.60
2022-11-29T07:54:15.102Z,48.00
2022-11-29T07:55:18.631Z,49.50
2022-11-29T07:56:15.081Z,50.00
2022-11-29T07:57:15.074Z,52.30
2022-11-29T07:58:15.059Z,43.60
2022-11-29T07:59:15.043Z,47.80
2022-11-29T08:00:15.036Z,45.40
2022-11-29T08:01:15.229Z,51.50
2022-11-29T08:02:15.057Z,51.10
2022-11-29T08:03:15.002Z,51.90
2022-11-29T08:04:14.992Z,51.30
2022-11-29T08:05:15.016Z,52.30
2022-11-29T08:06:14.971Z,46.80
2022-11-29T08:07:15.016Z,43.60
2022-11-29T08:08:14.947Z,57.30
2022-11-29T08:09:14.933Z,47.40
2022-11-29T08:10:14.927Z,46.50
2022-11-29T08:11:14.912Z,52.60
2022-11-29T08:12:14.914Z,49.40
2022-11-29T08:13:14.890Z,43.70
2022-11-29T08:14:14.882Z,56.60
2022-11-29T08:15:14.865Z,50.80
2022-11-29T08:16:14.926Z,51.60
2022-11-29T08:17:14.873Z,52.40
2022-11-29T08:18:14.837Z,47.10
2022-11-29T08:19:14.834Z,44.70
2022-11-29T08:20:14.816Z,43.60
2022-11-29T08:21:14.801Z,51.20
2022-11-29T08:22:14.804Z,47.90
2022-11-29T08:23:14.779Z,45.60
2022-11-29T08:24:14.773Z,49.40
2022-11-29T08:25:14.757Z,49.00
2022-11-29T08:26:14.751Z,44.60
2022-11-29T08:27:14.754Z,44.20
2022-11-29T08:28:14.730Z,45.30
2022-11-29T08:29:14.714Z,50.10
2022-11-29T08:30:14.709Z,44.70
2022-11-29T08:31:14.737Z,47.80
2022-11-29T08:32:14.712Z,50.00
2022-11-29T08:33:14.678Z,50.40
2022-11-29T08:34:14.664Z,46.20
2022-11-29T08:35:14.662Z,47.20
2022-11-29T08:36:14.640Z,57.00
2022-11-29T08:37:14.628Z,49.00
2022-11-29T08:38:14.640Z,51.80
2022-11-29T08:39:14.604Z,52.20
2022-11-29T08:40:14.599Z,51.10
2022-11-29T08:41:14.583Z,43.40
2022-11-29T08:42:14.575Z,47.30
2022-11-29T08:43:14.569Z,46.70
2022-11-29T08:44:14.553Z,50.00
2022-11-29T08:45:14.547Z,45.70
2022-11-29T08:46:18.531Z,45.40
2022-11-29T08:47:14.515Z,45.50
2022-11-29T08:48:14.520Z,49.80
2022-11-29T08:49:14.494Z,52.40
2022-11-29T08:50:14.492Z,49.80
2022-11-29T08:51:14.474Z,45.10
2022-11-29T08:52:14.468Z,47.50
2022-11-29T08:53:14.461Z,42.30
2022-11-29T08:54:14.443Z,49.30
2022-11-29T08:55:14.426Z,47.30
2022-11-29T08:56:53.450Z,49.80
2022-11-29T08:57:38.976Z,50.60
2022-11-29T08:58:14.417Z,44.90
2022-11-29T08:59:14.385Z,47.60
2022-11-29T09:00:14.381Z,43.40
2022-11-29T09:01:14.411Z,48.60
2022-11-29T09:02:14.372Z,81.50
2022-11-29T09:03:14.353Z,48.80
2022-11-29T09:04:14.333Z,58.10
2022-11-29T09:05:14.319Z,46.80
2022-11-29T09:06:14.313Z,43.50
2022-11-29T09:07:14.296Z,39.80
2022-11-29T09:08:14.301Z,45.20
2022-11-29T09:09:14.276Z,54.90
2022-11-29T09:10:14.268Z,46.40
2022-11-29T09:11:14.253Z,39.80
2022-11-29T09:12:14.247Z,47.80
2022-11-29T09:13:14.241Z,38.80
2022-11-29T09:14:14.227Z,43.90
2022-11-29T09:15:14.208Z,47.30
2022-11-29T09:16:14.252Z,36.60
2022-11-29T09:17:14.187Z,46.20
2022-11-29T09:18:14.192Z,42.60
2022-11-29T09:19:14.178Z,51.10
2022-11-29T09:20:14.158Z,42.10
2022-11-29T09:21:14.145Z,41.40
2022-11-29T09:22:14.135Z,45.00
2022-11-29T09:23:14.135Z,43.40
2022-11-29T09:24:14.117Z,47.00
2022-11-29T09:25:14.099Z,38.20
2022-11-29T09:26:14.092Z,45.70
2022-11-29T09:27:14.078Z,44.90
2022-11-29T09:28:14.080Z,45.60
2022-11-29T09:29:14.057Z,43.60
2022-11-29T09:30:16.968Z,43.30
2022-11-29T09:31:14.076Z,43.00
2022-11-29T09:32:14.027Z,48.30
2022-11-29T09:33:14.020Z,39.10
2022-11-29T09:34:14.014Z,44.40
2022-11-29T09:35:13.993Z,46.60
2022-11-29T09:36:13.984Z,45.60
2022-11-29T09:37:13.966Z,46.00
2022-11-29T09:38:13.976Z,44.50
2022-11-29T09:39:13.950Z,46.20
2022-11-29T09:40:13.938Z,50.10
2022-11-29T09:41:13.928Z,47.00
2022-11-29T09:42:13.916Z,42.20
2022-11-29T09:43:13.905Z,45.80
2022-11-29T09:44:13.906Z,44.20
2022-11-29T09:45:13.888Z,44.30
2022-11-29T09:46:13.909Z,52.00
2022-11-29T09:47:13.860Z,50.40
2022-11-29T09:48:13.843Z,51.60
2022-11-29T09:49:13.848Z,48.70
2022-11-29T09:50:13.830Z,50.60
2022-11-29T09:51:13.817Z,47.30
2022-11-29T09:52:13.809Z,50.10
2022-11-29T09:53:13.797Z,48.00
2022-11-29T09:54:13.787Z,51.40
2022-11-29T09:55:13.773Z,47.40
2022-11-29T09:56:13.759Z,51.20
2022-11-29T09:57:13.749Z,53.50
2022-11-29T09:58:13.734Z,50.90
2022-11-29T09:59:13.789Z,45.40
2022-11-29T10:00:13.710Z,53.30
2022-11-29T10:01:13.751Z,48.70
2022-11-29T10:02:18.290Z,54.70
2022-11-29T10:03:13.688Z,53.30
2022-11-29T10:04:13.677Z,51.40
2022-11-29T10:05:13.760Z,50.20
2022-11-29T10:06:13.646Z,51.80
2022-11-29T10:07:13.640Z,48.40
2022-11-29T10:08:13.623Z,54.60
2022-11-29T10:09:13.627Z,50.90
2022-11-29T10:10:13.601Z,45.60
2022-11-29T10:11:13.593Z,51.40
2022-11-29T10:12:13.601Z,51.00
2022-11-29T10:13:13.579Z,56.80
2022-11-29T10:14:13.596Z,51.80
2022-11-29T10:15:13.548Z,51.50
2022-11-29T10:16:13.579Z,55.00
2022-11-29T10:17:13.528Z,49.20
2022-11-29T10:18:13.513Z,48.90
2022-11-29T10:19:13.515Z,51.00
2022-11-29T10:20:13.492Z,55.70
2022-11-29T10:21:13.486Z,49.30
2022-11-29T10:22:13.468Z,46.80
2022-11-29T10:23:13.462Z,54.00
2022-11-29T10:24:13.456Z,47.30
2022-11-29T10:25:13.441Z,49.70
2022-11-29T10:26:13.425Z,44.70
2022-11-29T10:27:13.416Z,44.00
2022-11-29T10:28:13.401Z,49.90
2022-11-29T10:29:13.403Z,52.20
2022-11-29T10:30:13.380Z,56.20
2022-11-29T10:31:13.422Z,53.60
2022-11-29T10:32:13.356Z,51.50
2022-11-29T10:33:13.350Z,50.40
2022-11-29T10:34:13.345Z,55.00
2022-11-29T10:35:13.330Z,52.10
2022-11-29T10:36:13.312Z,53.80
2022-11-29T10:37:13.308Z,57.80
2022-11-29T10:39:14.787Z,51.90
2022-11-29T10:40:13.269Z,51.90
2022-11-29T10:41:13.270Z,54.80
2022-11-29T10:42:13.246Z,53.90
2022-11-29T10:43:13.240Z,54.90
2022-11-29T10:44:13.239Z,49.90
2022-11-29T10:45:13.217Z,51.70
2022-11-29T10:46:13.237Z,50.90
2022-11-29T10:47:13.198Z,54.20
2022-11-29T10:48:13.200Z,51.80
2022-11-29T10:49:13.184Z,51.10
2022-11-29T10:50:13.171Z,48.90
2022-11-29T10:51:13.149Z,44.70
2022-11-29T10:52:13.137Z,47.70
2022-11-29T10:53:13.129Z,50.10
2022-11-29T10:54:13.123Z,42.20
2022-11-29T10:55:13.106Z,46.00
2022-11-29T10:56:13.089Z,45.10
2022-11-29T10:57:13.083Z,49.40
2022-11-29T10:58:13.069Z,51.40
2022-11-29T10:59:13.072Z,50.20
2022-11-29T11:00:13.046Z,48.20
2022-11-29T11:01:13.111Z,47.70
2022-11-29T11:02:13.024Z,47.50
2022-11-29T11:03:13.017Z,50.30
2022-11-29T11:04:13.013Z,46.50
2022-11-29T11:05:13.122Z,45.60
2022-11-29T11:06:12.978Z,59.30
2022-11-29T11:07:12.973Z,51.10
2022-11-29T11:08:12.957Z,44.80
2022-11-29T11:09:13.034Z,47.00
2022-11-29T11:10:12.940Z,42.50
2022-11-29T11:11:12.934Z,47.10
2022-11-29T11:12:12.920Z,41.60
2022-11-29T11:13:12.906Z,46.00
2022-11-29T11:14:12.893Z,48.00
2022-11-29T11:15:12.896Z,38.30
2022-11-29T11:16:12.925Z,41.50
2022-11-29T11:17:12.903Z,42.20
2022-11-29T11:18:12.848Z,45.90
2022-11-29T11:19:12.844Z,45.60
2022-11-29T11:20:12.837Z,44.60
2022-11-29T11:21:12.816Z,56.40
2022-11-29T11:22:12.805Z,44.50
2022-11-29T11:23:12.797Z,45.70
2022-11-29T11:24:12.781Z,53.40
2022-11-29T11:25:12.784Z,48.00
2022-11-29T11:26:12.759Z,45.70
2022-11-29T11:27:12.752Z,43.30
2022-11-29T11:28:12.736Z,51.00
2022-11-29T11:29:12.729Z,44.10
2022-11-29T11:30:12.723Z,45.10
2022-11-29T11:31:12.801Z,49.20
2022-11-29T11:32:12.691Z,46.90
2022-11-29T11:33:12.686Z,44.00
2022-11-29T11:34:12.670Z,44.10
2022-11-29T11:35:18.210Z,47.80
2022-11-29T11:36:12.657Z,52.60
2022-11-29T11:37:12.641Z,46.70
2022-11-29T11:38:12.627Z,45.00
2022-11-29T11:39:12.622Z,49.70
2022-11-29T11:40:12.629Z,54.30
2022-11-29T11:41:12.598Z,51.30
2022-11-29T11:42:12.599Z,58.00
2022-11-29T11:43:12.575Z,56.00
2022-11-29T11:44:15.319Z,50.60
2022-11-29T11:45:12.571Z,52.40
2022-11-29T11:46:17.707Z,51.30
2022-11-29T11:47:12.536Z,51.70
2022-11-29T11:48:12.516Z,46.60
2022-11-29T11:49:12.510Z,44.50
2022-11-29T11:50:12.508Z,44.10
2022-11-29T11:51:12.481Z,45.30
2022-11-29T11:52:12.482Z,52.80
2022-11-29T11:53:12.459Z,44.60
2022-11-29T11:54:12.453Z,46.80
2022-11-29T11:55:12.448Z,48.40
2022-11-29T11:56:12.430Z,50.70
2022-11-29T11:57:12.415Z,47.50
2022-11-29T11:58:12.411Z,44.70
2022-11-29T11:59:12.403Z,51.60
2022-11-29T12:00:12.395Z,43.70
2022-11-29T12:01:12.372Z,49.00
2022-11-29T12:02:12.432Z,50.40
2022-11-29T12:03:12.560Z,51.20
2022-11-29T12:04:12.349Z,42.90
2022-11-29T12:05:12.337Z,44.10
2022-11-29T12:06:12.320Z,42.40
2022-11-29T12:07:12.305Z,50.90
2022-11-29T12:08:12.332Z,40.80
2022-11-29T12:09:12.283Z,42.00
2022-11-29T12:10:12.283Z,38.20
2022-11-29T12:11:12.261Z,38.00
2022-11-29T12:12:12.258Z,46.80
2022-11-29T12:13:12.246Z,41.90
2022-11-29T12:14:12.232Z,38.90
2022-11-29T12:15:12.224Z,34.00
2022-11-29T12:16:12.223Z,29.70
2022-11-29T12:17:15.521Z,29.70
2022-11-29T12:18:12.194Z,35.40
2022-11-29T12:19:12.174Z,28.60
2022-11-29T12:20:12.234Z,33.70
2022-11-29T12:21:12.149Z,33.50
2022-11-29T12:22:12.155Z,34.70
2022-11-29T12:23:12.126Z,31.20
2022-11-29T12:24:12.141Z,29.30
2022-11-29T12:25:12.113Z,30.00
2022-11-29T12:26:19.207Z,34.20
2022-11-29T12:27:12.160Z,37.00
2022-11-29T12:28:14.657Z,30.20
2022-11-29T12:29:12.072Z,31.30
2022-11-29T12:30:12.090Z,32.00
2022-11-29T12:31:12.185Z,35.10
2022-11-29T12:32:12.037Z,33.50
2022-11-29T12:33:12.045Z,37.50
2022-11-29T12:34:12.034Z,29.60
2022-11-29T12:35:17.434Z,32.30
2022-11-29T12:36:12.020Z,29.50
2022-11-29T12:37:11.975Z,28.00
2022-11-29T12:38:11.968Z,31.70
2022-11-29T12:39:11.949Z,28.90
2022-11-29T12:40:11.946Z,32.50
2022-11-29T12:41:11.936Z,32.00
2022-11-29T12:42:11.920Z,36.90
2022-11-29T12:43:11.916Z,31.60
2022-11-29T12:44:11.894Z,31.60
2022-11-29T12:45:11.889Z,38.10
2022-11-29T12:46:11.918Z,42.30